Timeline UpdatesTrip UpdatesNews PostsPvt Posts♥♥Travel TipsAdmin PostsConv PostsFollowed PostsChat RequestsBlog PostsPNR Posts

Disclaimer
Search
 
 
Sun Nov 23, 2014 07:48:21 ISTHomeTrainsΣChainsAtlasPNRForumGalleryNewsFAQTripsMembersLoginFeedback
No Recent News for this Train
Other Trains in the News **new
Latest...
.
Mon Sep 01, 2014 (10:27PM)
⇐ Return Journey: Train# 15708

15707/Amrapali Express

Time-Table HAS CHANGED.
Sep 03 2014 (10:50AM)
Change Departure Station:
Change Arrival Station:
Post a Train Travel TipPost a Train Travel Tip **new
Post a Comment/Question/Picture/VideoPost a Comment/Question/Picture/Video
Pantry/Catering
✕ NO Pantry Car
✓ Catering Avbl
RSA - Rake Sharing
Rake/Coach Composition
Loco«SLR-GN-GN-GN-GN-A1-B1-S1-S2-S3-S4-S5-S6-S7-S8-S9-GN-GN-GN-GN-GN-SLR= 22 Coach Train. S1 becomes S9 in DN train.
Loco
SGUJ WDP 4 from KIR-LKO, CNB WAP 4 from...
Read more...
LKO-ASR.
News    PNR    Forum    Time-Table    Availability    Fare Chart    Map    Arr/Dep History    Trips    Gallery    ΣChains    X/O    Timeline    
Travel Time: 1h 26m    1 halts    Distance: 89 km    Avg Speed: 62 km/hr
Type: Mail/Express
Zone: NFR/Northeast Frontier
Departs @ 03:25 (Avg 1h 53m late)
Platform# 10
SMTWTFS
Old Delhi Junction/DLI 
Arrives @ 04:51 (Avg 2h 5m late)
Platform# 3
SMTWTFS
Panipat Junction/PNP 

1 halts. 18 intermediate Stations between Old Delhi Junction and Panipat Junction

Hide intermediate Stations  Show Old Time-Table

#TrkCodeStation NameX/OArrivesAvgDepartsAvgHaltPFDay#KmSpeedElevZoneAddress
1%--%KIRKatihar Junction (7)  -23:30+011-1350.86735mNFRKatihar 854105, Bihar
1.1%-=%SMOSemapurX  23:40-23:40-  1-1339.3 6735mECRKatihar, Bihar
2%==%CRRKaragola Road  23:51 23:50+2023:52+201 2m--1-1328.57836mECRLachhmipur, Bihar
2.1%==%BRZRBarari Bazar  23:54-23:54-  1-1325.8 7834mECRMarghia, Bihar
2.2%==%BKHRBakhri  23:56-23:56-  1-1323.1 7835mECRBakhri, Bihar
3%=-%KUEKursela  00:07 00:05+2400:08 00:06+271m--2-1311.65131mECRNH 31, Bihar
3.1%-=%KTRHKatareahX  00:15-00:15-  2-1304.1 510mECRKumadpur, Bihar
4%==%NNANaugachia (3)  00:25 00:28+2900:26 00:30+291 2m22-1293.06437mECRBhagalpur, Bihar
4.1%==%KHQKharik (3)  00:37-00:37-  2-1285.2 6438mECRKharik, Bihar
4.2%==%BIGHBagrigram Halt (1)  00:40-00:40-  2-1282.0 6438mECRBagri, Bihar
5%==%THBThana Bihpur Junction (3)  00:42 00:45+3100:43 00:46+341m--2-1277.17639mECRThana Bihpur, Bihar
5.1%==%NNRNarayanpur (2)  00:52-00:52-  2-1269.5 7639mECRNarayanpur, Bihar
5.2%==%BRKBBharat Khand (1)  00:56-00:56-  2-1264.1 7634mECRBharat Khand, Bihar
5.3%==%BRKDBharat Khand  00:56-00:56-  2-1264.1 7635mECRNational Highway 31, Bihar
5.4%==%PSRPasraha (3)  01:01-01:01-  2-1257.9 7641mECRPasraha, Bihar
5.5%==%GAIGauchhari (3)  01:08-01:08-  2-1249.6 7640mECRGauchhari, Bihar
5.6%==%MSKMahes Khunt (2)  01:11-01:11-  2-1245.5 7637mECRMaheshkhunt, Bihar
5.7%==%CDBNChedhabanni Halt (2)  01:15-01:15-  2-1239.9 7642mECRChedhabanni, Bihar
6%==%MNEMansi Junction (4)  01:23 01:19+4501:24 01:20+471m--2-1235.15343mECRMansi, Bihar
7%=-|KGGKhagaria Junction (3)X  01:43 01:30+4801:44 01:32+491 2m--2-1226.35343mECRKhagaria, Bihar
7.1%==%UMNRUmeshnagar (3)  01:40-01:40-  2-1219.5 5341mECRNational Highway 31, Bihar
7.2%==%SKJSahibpur Kamal Junction (2)  01:46-01:46-  2-1213.9 5341mECRShahpur Kamal, Bihar
7.3%==%SANHSanha Halt (2)X  01:50-01:50-  2-1210.4 5342mECRSanha, Bihar
7.4%==%LKNLakhminia (3)  01:57-01:57-  2-1204.2 5345mECRBegusarai, Bihar
7.5%==%DPLDanauli Phulwaria (3)  02:03-02:03-  2-1198.9 5342mECRDanauli Phlwria, Bihar
7.6%==%LAKLakho (1)X  02:09-02:09-  2-1193.8 5344mECRLakho, Bihar
8%==%BGSBegusarai (3)  02:30 02:17+3902:31 02:18+411m--2-1186.41546mECRBegusarai, Bihar
8.1%--%TILTilrath (2)X  02:44-02:44-  2-1179.6 1546mECRNH 31, Bihar
8.2%--%BEHTBihat Halt (2)  02:59-02:59-  2-1175.9 1546mECRBihat Halt, Bihar
9/--%BJUBarauni Junction (9)X  03:10+2503:20+2610m72-1173.05549mECRBegusarai, Bihar
9.1/==/BUJBarauni Flag (2)  03:23-03:23-  2-1170.3 5549mECRDistt: Begusarai, Bihar
9.2/==/TGATeghra (3)  03:28-03:28-  2-1165.6 5548mECRBegusarai, Bihar
9.3/==/BCABachwara Junction (3)  03:38-03:38-  2-1156.6 5549mECRBegusarai, Bihar
9.4/==/STJTSathajagat (2)  03:45-03:45-  2-1150.2 5549mECRSathajagat, Bihar
9.5/==/DSSDalsingh Sarai (2)  03:50-03:50-  2-1145.7 55 ECR06278-221238, Bihar
9.6/==/BSRABasarhia Halt (2)  03:54-03:54-  2-1141.4 5552mECRBasaria, Bihar
9.7/==/NAZJNazirGanj (2)  03:58-03:58-  2-1137.8 5551mECRNazirGanj, Bihar
9.8/==/UJPUjiarpur (2)  04:05-04:05-  2-1131.5 5551mECRSamastipur, Bihar
9.9/==/BLRIBelari Halt  04:10-04:10-  2-1127.1 5551mECRMalti, Bihar
10/==/SPJSamastipur Junction (9)X  04:17 04:15+3204:22 04:20+325m82-1122.55855mECRSamastipur, Bihar
10.1/==/KPGMKarpurigram (3)X  04:26-04:26-  2-1116.2 5851mECRState Highway 49, Bihar
11/==/KRBPKhudiram B Pusa (2)X  04:36 04:34+3804:37 04:35+391m--2-1108.86252mECRDistt. Samastipur, Bihar
11.1/==/VBHVishnupur Bathua HaltX  04:39-04:39-  2-1105.1 6255mECRTajpur - Garhia - Pusa Road, Bihar
11.2/==/DUBHDubaha (2)  04:42-04:42-  2-1101.5 6255mECRDubha Station, Bihar
12/==/DOLDholi (2)  04:50 04:48+4004:51 04:49+411m--2-1095.542 ECRDistt. Muzaffarpur, Bihar
12.1/==/SIHOSiho (2)X  04:59-04:59-  2-1088.6 4253mECRNational Highway 28, Bihar
12.2/==/SLTSilaut (2)  05:10-05:10-  2-1080.8 4257mECRMuzaffarpur, Bihar
12.3/==/NRPANarayanpur Anant (3)  05:18-05:18-  2-1075.2 4256mECRMuzaffarpur, Bihar
13/==/MFPMuzaffarpur Junction (6)X  05:27 05:25+4405:37 05:30+4810 5m32-1070.34357mECRMuzaffarpur, Bihar
13.1%=-/RDRam Dayalu Nagar (3)X  05:38-05:38-  2-1064.3 4356mECRMuzaffarpur, Bihar
13.2/--/TURTurki (2)  05:49-05:49-  2-1056.6 4355mECRTurki, Bihar
13.3/--/KHIKurhani (2)X  05:58-05:58-  2-1050.2 4356mECRKurhani, Bihar
13.4/--/GRLGoraul (2)X  06:06-06:06-  2-1044.4 4357mECRVAISHALI, Bihar
13.5/--/BNPTBenipatti Pirapur (1)  06:09-06:09-  2-1042.5 4355mECRGhojaul Rd, Bihar
13.6/--/BNRBhagwanpur (2)  06:18-06:18-  2-1036.2 4360mECRBhagwanpur, Bihar
13.7/--/BTHLBithauli (1)  06:24-06:24-  2-1031.5 4358mECRVaishali, Bihar
13.8/--/SAISarai (1)  06:30-06:30-  2-1027.1 4354mECRVaishali, Bihar
13.9/--/GWHGhoshawar (1)  06:39-06:39-  2-1021.1 4354mECRDaulatpur Deoria urf Daulatpur, Bihar
14/-=/HJPHajipur Junction (3)  06:49 06:45+5006:50+501 5m--2-1016.53355mECR06224-272230, Bihar
15/==/SEESonpur Junction (4)X  07:00+5207:10+4710m32-1011.02756mECRSaran, Bihar
15.1/==/PMUParmanandpur (2)  07:25-07:25-  2-1004.3 2756mECRNational Highway 19, Bihar
15.2/==/NYONayagaon (2)X  07:35-07:35-  2-999.7 2753mECRNayagaon Sarai, Bihar
15.3/==/STLRSitalpur (2)  07:52-07:52-  2-992.0 2757mECRSitalpur, Bihar
15.4/==/DGADighwara (2)X  08:01-08:01-  2-987.8 2760mECR06158-281240, Bihar
15.5/==/AABHAmbika Bhawani Halt (1)  08:10-08:10-  2-983.9 2759mECRNH 19, Bihar
15.6/==/ATNRAwatarnagar (2)  08:14-08:14-  2-982.0 2756mECRNH 19, Bihar
15.7/==/PPDAPanchpatia Deoria Halt (1)X  08:19-08:19-  2-979.8 2757mECRNH 19, Bihar
15.8/==/BAGLBaragopal (2)X  08:25-08:25-  2-977.0 2757mECRSH 46, Bihar
15.9/==/DRIDumri Juara (2)  08:35-08:35-  2-972.9 2757mECRSaran, Bihar
15.10/==/GJHGoldinganj (2)X  08:45-08:45-  2-968.2 2758mECRChapra Patna Highway, Bihar
15.11/==/CIChhapra Kacheri (3)  09:05-09:05-  2-959.1 2757mNERChhapra, Bihar
16/==/CPRChhapra Junction (6)X  08:40 09:10+1608:50 09:20+1710m32-956.98258mNERDistt: Saran, Bihar
16.1%==%TKVRTeknewas (2)  09:23-09:23-  2-952.6 8258mNERSaran, Bihar
16.2%==%KPSKopa Samhota (2)X  09:28-09:28-  2-946.3 8269mNERKopa Samhota Station Rd, Bihar
16.3%==%DDPDaudpur (2)  09:34-09:34-  2-937.7 8259mNERChhapra, Bihar
16.4%==%EKMAEkma (3)  09:41-09:41-  2-929.0 8264mNERSaran, Bihar
16.5%==%MHRNMahendranath Halt (2)  09:44-09:44-  2-923.7 8263mNERMahendrana, Uttar Pradesh
16.6%==%CWChainwa (2)  09:46-09:46-  2-921.7 8263mNERSiwan, Bihar
16.7%==%DDADuraundha Junction (3)X  09:52-09:52-  2-913.5 8264mNERDistt: Siwan, Bihar
16.8%==%PCKPachrukhi (2)  09:59-09:59-  2-904.1 8267mNERPachrukhi, Bihar
17%==%SVSiwan Junction (4)X  09:40 10:05+3009:45 10:10+305m--2-895.77170mNERSiwan, Bihar
17.1%==%ZRDEJiradei (2)X  10:19-10:19-  2-885.4 7169mNERSiwan, Bihar
17.2%==%KYWKarchhue  10:23-10:23-  2-879.9 7170mNERState Highway 47, Bihar
17.3%==%MWMairwa (2)X  10:28-10:28-  2-874.4 7173mNERMairwa, Bihar
17.4%==%BTKBankata (2)XO  10:34-10:34-  2-868.0 7173mNERDeoria, Uttar Pradesh
17.5%==%BHTRBhatpar Rani (2)X  10:40-10:40-  2-859.9 7173mNERDeoria, Uttar Pradesh
17.6%==%NNPRNonapar  10:47-10:47-  2-851.8 7176mNERSalempur Mairwa Rd, Uttar Pradesh
17.7%==%BTTBhatni Junction (5)  10:51-10:51-  2-847.0 7173mNERDeoria, Uttar Pradesh
17.8%==%NRANunkhar (2)  10:58-10:58-  2-839.7 7175mNERBaikunthpur, Uttar Pradesh
17.9%==%AHLRAhalyapur  11:04-11:04-  2-832.4 7181mNERDeoria, Uttar Pradesh
18%==%DEOSDeoria Sadar (3)  11:04 11:09+3911:05 11:10+421m--2-826.23579mNERDeoria- 274001, Uttar Pradesh
18.1%==%BALRBaitalpur (2)  11:21-11:21-  2-819.7 3582mNERPin- 274201, Uttar Pradesh
18.2%==%GBGauri Bazar (2)  11:36-11:36-  2-811.2 3582mNERDistrict Deoria- Pincode- 274202, Uttar Pradesh
18.3%==%CCChauri Chaura (2)X  11:53-11:53-  2-801.5 3584mNERGorakhpur- PinCode:- 273201, Uttar Pradesh
18.4%==%SANRSardarnagar  12:02-12:02-  2-796.2 3582mNERGorakhpur-Deoria Road, Uttar Pradesh
18.5%==%KHMKusmhi (2)X  12:12-12:12-  2-790.2 3583mNERGorakhpur, Uttar Pradesh
18.6%==%GKCGorakhpur Cantt. (3)  12:29-12:29-  2-780.8 3585mNERGorakhpur-273001, Uttar Pradesh
19%==%GKPGorakhpur Junction (10)X  12:15 12:35+3712:35 12:50+4220 15m52-777.15084mNERGorakhpur 273001, Uttar Pradesh
19.1%==%DMGDomingarh (2)X  12:55-12:55-  2-773.0 5080mNERGorakhpur- 273004, Uttar Pradesh
19.2%==%JTBJagatbela (2)X  13:03-13:03-  2-766.3 5078mNERDistt Gorakhpur- 273015, Uttar Pradesh
19.3%==%SWASahjanwa (2)  13:11-13:11-  2-760.0 5080mNERGorakhpur - 273209, Uttar Pradesh
19.4%==%SIPRSihapar Halt (2)  13:17-13:17-  2-755.0 5080mNERGorakhpur, Uttar Pradesh
19.5%==%MHHMaghar (3)X  13:21-13:21-  2-751.7 5083mNERNH 28. Distt- SantKabirNagar- 272173, Uttar Pradesh
20%==%KLDKhalilabad (3)X  13:12 13:31+4413:13 13:33+441 2m12-743.26686mNERKhalilabad- 272175, Uttar Pradesh
20.1%==%CRVChureb (2)X  13:40-13:40-  2-735.4 6688mNERDistrict- Khalilabad, Uttar Pradesh
20.2%==%MNDMunderwa (2)  13:47-13:47-  2-727.9 6689mNERNational Highway 28, Uttar Pradesh
20.3%==%ORWOrwara (2)X  13:53-13:53-  2-721.3 6691mNERDistrict- BASTI, Uttar Pradesh
21%==%BSTBasti (4)  13:40 14:00+4413:45 14:05+445m12-713.77190mNERBasti 272001, Uttar Pradesh
21.1%==%GOVRGovindnagar (2)X  14:10-14:10-  2-707.3 7193mNERPin-272002, Uttar Pradesh
21.2%==%THTinich (2)  14:17-14:17-  2-698.9 7195mNERDistrict- Basti, Uttar Pradesh
21.3%==%GAURGaur (2)  14:24-14:24-  2-690.7 7196mNERDistrict-Basti, Uttar Pradesh
21.4%==%BVBabhnan (2)  14:31-14:31-  2-682.9 71101mNERDistrict- Basti, Uttar Pradesh
21.5%==%PATIParsa Tiwari (2)  14:36-14:36-  2-677.3 7198mNERChhapaiya Rd, Uttar Pradesh
21.6%==%BNGYBahman Jyotia (2)  14:38-14:38-  2-674.8 71100mNERGonda, Uttar Pradesh
21.7%==%SNCSwami Narayan Chhapia (2)  14:41-14:41-  2-671.5 71100mNERS Narayan Chpla, Uttar Pradesh
21.8%==%MSWMaskanwa (2)X  14:44-14:44-  2-667.2 71103mNERChhapaiya Rd, Uttar Pradesh
21.9%==%LKNRLakhpat Nagar (2)  14:52-14:52-  2-658.3 71102mNERMankapur, Uttar Pradesh
21.10%==%MURMankapur Junction (5)14:34 14:56-14:36 14:56-  2-653.1 71104mNERDistrict Gonda, Uttar Pradesh
21.11%==%JLHIJhilahi (2)X  15:02-15:02-  2-646.6 71102mNERSH 9, Uttar Pradesh
21.12%==%MOTGMotiganjX  15:07-15:07-  2-640.3 71111mNERGonda, Uttar Pradesh
21.13%==%BRCKBarua Chak (2)  15:13-15:13-  2-632.9 71107mNERBaruachak, Uttar Pradesh
22%==/GDGonda Junction (3)  15:00 15:20+4115:05 15:25+435m12-625.255110mNERGonda 271001, Uttar Pradesh
22.1/==/GDKGonda Kachahri (3)  15:30-15:30-  2-620.3 55110mNERGonda, Uttar Pradesh
22.2/==/KTHLKathola (2)  15:38-15:38-  2-613.4 55106mNERGonda, Uttar Pradesh
22.3/==/MIRMaijapur (2)  15:44-15:44-  2-607.6 55108mNERGonda, Uttar Pradesh
22.4/==/KSRKasturi (2)  15:50-15:50-  2-602.1 55108mNERkasturi Gonda, Uttar Pradesh
22.5/==/CLJColonelGanj (2)X  15:57-15:57-  2-596.3 55108mNERGonda, Uttar Pradesh
22.6/==/SUJSarju (2)  16:05-16:05-  2-588.6 55109mNERGonda, Uttar Pradesh
22.7/==/JLDJarwal Road (2)  16:16-16:16-  2-579.1 55112mNERBehraich, Uttar Pradesh
22.8/==/GHTGhaghara Ghat (2)  16:20-16:20-  2-575.0 55107mNERBahraich, Uttar Pradesh
22.9/==/CKGChowka Ghat (2)X  16:26-16:26-  2-569.4 55107mNERBarabanki, Uttar Pradesh
22.10/==/BUWBurhwal Junction (3)  16:33-16:33-  2-563.0 55119mNERBarabanki, Uttar Pradesh
22.11/==/BURBindaura (2)X  16:44-16:44-  2-553.4 55125mNERbarabanki, Uttar Pradesh
22.12/==/RFRRafinagar (2)  16:47-16:47-  2-550.1 55124mNERbarabanki, Uttar Pradesh
22.13/==/JBRJahangirabad Rj (2)  16:54-16:54-  2-544.1 55125mNERJahangirabad, Uttar Pradesh
23/==/BBKBarabanki Junction (4)  17:03+4717:05+482m--2-535.938 NRPin-225001, Uttar Pradesh
23.1/==/SFHSafedabad (3)X  17:17-17:17-  2-528.3 38121mNRBarabanki, Uttar Pradesh
23.2/==/JRRJugaur (1)X  17:22-17:22-  2-524.9 38123mNRCanal Rd, Uttar Pradesh
23.3/==/MLMalhaur (3)X  17:31-17:31-  2-519.4 38120mNRLucknow, Uttar Pradesh
24/==/LKOLucknow Charbagh NR (9)  17:50+5518:25+4935m42-507.468 NR226004, Uttar Pradesh
24.1/==/LJNLucknow Junction NER (6)X  18:26-18:26-  2-506.6 68126mNERLucknow, Uttar Pradesh
24.2/==/LNWTLucknow WestX  18:26-18:26-  2-505.7 68123mNRLucknow, Uttar Pradesh
24.3/==/MKGManak Nagar (3)  18:29-18:29-  2-502.6 68129mNRAlambagh, Uttar Pradesh
24.4/==/AMSAmausi (3)  18:35-18:35-  2-496.3 68126mNRLucknow, Uttar Pradesh
24.5/==/POFPiparsand (2)  18:40-18:40-  2-490.5 68126mNRNational Highway 25A near Lonha village, Uttar Pradesh
24.6/==/HRNHarauni (3)X  18:45-18:45-  2-484.2 68128mNRLucknow, Uttar Pradesh
24.7/==/JTUJaitipur (2)X  18:50-18:50-  2-479.2 68127mNRNational Highway 25, Uttar Pradesh
24.8/==/KVXKusumbhi (2)  18:55-18:55-  2-473.8 68126mNRAjgain, Uttar Pradesh
24.9/==/AJAjgain (3)X  18:59-18:59-  2-468.2 68128mNRAjgain, Uttar Pradesh
24.10/==/SICSonik (2)  19:05-19:05-  2-462.2 68129mNRNational Highway 25, Uttar Pradesh
25/==/ONUnnao Junction (5)X  19:15 19:13+5319:16 19:15+551 2m--2-452.830129mNRUnnao, Uttar Pradesh
25.1/==/MGWMagarwara (2)X  19:28-19:28-  2-446.4 30128mNRUnnao, Uttar Pradesh
25.2/==/CPBKanpur Bridge Left Bank (3)X  19:42-19:42-  2-439.3 30120mNRKanpur, Uttar Pradesh
26/==/CNBKanpur Central (10)  19:50+5620:00+1:0210m62-435.487128mNCRKANPUR-208 001, Uttar Pradesh
26.1/==/GMCKanpur Goods Marshalling YardX  20:01-20:01-  2-434.2 87128mNCRKanpur-208 014, Uttar Pradesh
26.2/==/CNJOJuhi Outer Cabin  20:02-20:02-  2-432.5 87131mNCRKanpur, Uttar Pradesh
26.3/==/CPNLKanpur C Panel  20:02-20:02-  2-432.0 87127mNCRKanpur, Uttar Pradesh
26.4/==/GOYGovindpuri Junction (2)  20:03-20:03-  2-431.5 87129mNCRKANPUR-208 006, Uttar Pradesh
26.5/==/PNKPanki (3)X  20:08-20:08-  2-423.9 87129mNCRKANPUR-208 020, Uttar Pradesh
26.6/==/BPUBhaupurX  20:16-20:16-  2-412.7 87133mNCRKANPUR Dehat-209 307, Uttar Pradesh
26.7/==/MTOMaitha  20:22-20:22-  2-402.8 87235mNCRKanpur Rural, Uttar Pradesh
26.8/==/RMWRoshan MauX  20:25-20:25-  2-398.7 87135mNCRkanpur rural, Uttar Pradesh
26.9/==/RURARura (4)X  20:31-20:31-  2-391.1 87137mNCRJhinjhak, Uttar Pradesh
26.10/==/AAPAmbiapur  20:37-20:37-  2-382.3 87140mNCRJhinjhak, Uttar Pradesh
26.11/==/JJKJhinjhak (3)X  20:44-20:44-  2-372.0 87140mNCRAuraiya, Uttar Pradesh
26.12/==/PJYPara Jani Halt (1)  20:48-20:48-  2-366.2 87139mNCRPara Jani, Uttar Pradesh
26.13/==/KNSKanchausi (2)X  20:51-20:51-  2-361.1 87143mNCRState Highway 21, Uttar Pradesh
26.14/==/PHDPhaphund (4)XO  20:57-20:57-  2-352.2 87146mNCRdist. Auraiya, Uttar Pradesh
26.15/==/PATAPata (3)X  21:03-21:03-  2-343.8 87143mNCRPhaphund, Uttar Pradesh
26.16/==/ULDAchalda (3)X  21:09-21:09-  2-335.4 87147mNCRDist. Auraiya(05688-1072), Uttar Pradesh
26.17/==/GHSRGhasara Halt (1)X  21:13-21:13-  2-330.0 87146mNCRPhaphund, Uttar Pradesh
26.18/==/SHWSamhon (2)  21:15-21:15-  2-326.3 87144mNCRSamahon, Uttar Pradesh
26.19/==/BNTBharthana (3)X  21:22-21:22-  2-315.9 87147mNCRBharthana, Uttar Pradesh
26.20/==/EKLEkdil (2)X  21:29-21:29-  2-305.7 87150mNCRSarai Ikdil, Uttar Pradesh
27/==/ETWEtawah (5)  21:37 21:36+1:3521:38+1:371 2m22-296.089154mNCRDistt. Etawah, Uttar Pradesh
27.1/==/SBSarai Bhopat (2)X  21:44-21:44-  2-287.7 89151mNCREtawah(05688-1072), Uttar Pradesh
27.2/==/JGRJaswantnagar (2)  21:49-21:49-  2-280.1 89154mNCRJaswantnagar, Uttar Pradesh
27.3/==/BBLBalrai (3)  21:55-21:55-  2-271.3 89157mNCRBalrai, Uttar Pradesh
27.4/==/BDNBhadan (2)O  22:02-22:02-  2-260.6 89160mNCRFirozabad, Uttar Pradesh
27.5/==/KAAKaurara (3)  22:08-22:08-  2-251.5 89160mNCRFirozabad Distt, Uttar Pradesh
27.6/==/SKBShikohabad Junction (4)  22:16-22:16-  2-240.6 89166mNCRDistrict Firozabad, Uttar Pradesh
27.7/==/MNRMakkhanpur (2)X  22:22-22:22-  2-230.7 89166mNCRNational Highway 2, Uttar Pradesh
28/==/FZDFirozabad (4)X  22:30 22:29+1:4722:31+1:491 2m32-220.825164mNCRFirozabad, Uttar Pradesh
28.1/==/HNGHirangaon (2)X  22:49-22:49-  2-213.0 25166mNCRNational Highway 2, Uttar Pradesh
29/==/TDLTundla Junction (5)X  23:10+1:3623:15+1:385m22-204.290167mNCRDistt.Firozabad, Uttar Pradesh
29.1/==/WSCShivarampurX  23:17-23:17-  2-200.7 90168mNCRShivarampur, Uttar Pradesh
29.2/==/MTIMitawali (1)  23:20-23:20-  2-197.4 90169mNCRMitawali, Uttar Pradesh
29.3/==/BRNBarhan JunctionX  23:25-23:25-  2-189.5 90173mNCRJN Point-Tundle/Aligarh/Etah, Uttar Pradesh
29.4/==/CMRChamrola (1)  23:29-23:29-  2-182.7 90174mNCRMDR 106W, Uttar Pradesh
29.5/==/JLSJalesar Road (1)  23:34-23:34-  2-176.3 90172mNCRMDR 106W, Uttar Pradesh
29.6/==/PORAPora (2)  23:40-23:40-  2-166.6 90179mNCRHathras, Uttar Pradesh
30/==/HRSHathras Junction (3)X  23:47+1:5023:48+1:531m--2-156.267183mNCRMahamaya Nagar(05722-242803), Uttar Pradesh
30.1/==/SNSSasni (3)X  23:56-23:56-  2-147.3 67185mNCRSasni, Uttar Pradesh
30.2/==/MXKMandrak (2)  00:03-00:03-  3-139.9 67190mNCRNational Highway 93, Uttar Pradesh
30.3/==/DAQDaud Khan (3)  00:09-00:09-  3-133.1 67189mNCRNational Highway 91, Uttar Pradesh
31/==/ALJNAligarh Junction (4)X  00:15+1:5500:20+1:565m33-126.187192mNCRAligarh, Uttar Pradesh
31.1/==/MWUEMahrawal (2)X  00:24-00:24-  3-119.7 87189mNCRNational Highway 91, Uttar Pradesh
31.2/==/KLAKulwa (2)  00:28-00:28-  3-114.1 87190mNCRAligarh, Uttar Pradesh
31.3/==/SOMSomna (2)X  00:35-00:35-  3-104.0 87195mNCRNational Highway 91, Uttar Pradesh
31.4/==/DARDanwar (2)  00:42-00:42-  3-93.7 87198mNCRDanwar, Uttar Pradesh
31.5/==/KAMPKamalpur (2)  00:46-00:46-  3-88.1 87195mNCRKamalpur, Uttar Pradesh
32/==/KRJKhurja Junction (4)00:50+2:0000:52+2:002m--3-82.652199mNCRBulandshahr, Uttar Pradesh
32.1/==/SKQSikandarpur (2)X  00:59-00:59-  3-76.9 52199mNCRMDR 70W, Uttar Pradesh
32.2/==/GNRLGangraul (3)  01:04-01:04-  3-72.1 52200mNCRMDR 70W, Uttar Pradesh
32.3/==/CHLChola (3)X  01:09-01:09-  3-68.0 52204mNCRTahsil Bulandshahar, Uttar Pradesh
32.4/==/WIRWairX  01:15-01:15-  3-63.2 52203mNCRBhati Harish Singh, Uttar Pradesh
32.5/==/WAIRWair (2)  01:15-01:15-  3-63.1 52203mNCRBulandshahr District, Uttar Pradesh
32.6/==/DKDEDankaur (3)  01:25-01:25-  3-54.1 52209mNCRShyam Nagar Mandi, Uttar Pradesh
32.7/==/AJRAjaibpur (2)  01:35-01:35-  3-45.8 52207mNCRGreater Noida, Uttar Pradesh
32.8/==/BRKYBoraki (2)  01:41-01:41-  3-40.9 52208mNCRNational Highway 91, Uttar Pradesh
32.9/==/DERDadri (3)  01:45-01:45-  3-36.7 52210mNCR203207, Uttar Pradesh
32.10/==/MIUMaripat (2)  01:53-01:53-  3-29.9 52213mNCRNational Highway 91, Uttar Pradesh
32.11/==/CYZChipyana Buzurg (1)  02:01-02:01-  3-23.5 52209mNRGhaziabad, Uttar Pradesh
33/==/GZBGhaziabad Junction (6)  02:05+1:5202:07+1:522m33-19.948217mNRGhaziabad, Uttar Pradesh
33.1/==/SBBSahibabad Junction (5)X  02:15-02:15-  3-13.2 48209mNRGhaziabad, Uttar Pradesh
33.2/==/DSAPDelhi Shahdara A Panel  02:21-02:21-  3-8.9 48208mNRVivek Vihar Phase I, Delhi NCT
33.3/==/VVBVivek Vihar (2)  02:21-02:21-  3-8.6 48209mNRJhilmil Industrial Area, Delhi NCT
34/==/DSAShahdara Junction (4)  02:25 02:24+1:5802:26+1:581 2m--3-6.316212mNRCircular Rd, Delhi NCT
35/==/DLIOld Delhi Junction (16)»  02:50+2:0303:25+1:5335m1030.056219mNRNear Chandni Chowk Metro Station, Delhi NCT
35.1/==/DSBSadar Bazar (4)  03:26-03:26-  31.3 56220mNRSadar Bazaar, Delhi NCT
35.2/==/SZMDelhi Sabzi Mandi (2)X  03:29-03:29-  33.6 56220mNRGulabi Bagh, Delhi NCT
35.3/==/DAZAzadpur (2)  03:34-03:34-  38.0 56218mNRLal Bagh, Delhi NCT
35.4/==/NDAZNaya Azadpur  03:35-03:35-  39.6 56213mNRNaya Azadpur, Delhi NCT
35.5/==/ANDIAdarsh Nagar (2)  03:36-03:36-  310.1 56214mNRShalimar Bagh, Delhi NCT
35.6/==/BHDBadli (2)  03:40-03:40-  314.2 56217mNRRohini, Delhi NCT
35.7/==/KHKNKhera Kalan (2)X  03:44-03:44-  317.5 56215mNRKhera Kalan, Delhi NCT
35.8/==/HUKHolambi Kalan  03:48-03:48-  321.3 56216mNRHolambi Kalan, Delhi NCT
35.9/==/NURNarela (2)X  03:54-03:54-  326.8 56222mNRNarela, Delhi NCT
35.10/==/RDDERathdhana (2)X  04:01-04:01-  333.5 56223mNRSonipat, Haryana
35.11/==/HNNHarana Kalan (2)X  04:06-04:06-  338.5 56216mNRKMP Expy, Haryana
36/==/SNPSonipat (3)  04:12+2:0804:13+2:111m--343.971225mNRSonipat, Haryana
36.1/==/SLKNSandal KalanX  04:20-04:20-  352.3 71223mNRSonepat, Haryana
36.2/==/RUGRajlu Garhi  04:23-04:23-  355.3 71223mNRSonepat, Haryana
36.3/==/GNUGanaurX  04:26-04:26-  359.8 71222mNRGanaur, Haryana
36.4/==/BDMJBhodwal Majri  04:31-04:31-  365.8 71224mNRRailway Rd, Haryana
36.5/==/SMKSamalkha (3)X  04:37-04:37-  372.1 71229mNRSamalkha, Haryana
36.6/==/DWNADiwanaX  04:44-04:44-  381.0 71234mNRNH 1, Haryana
37/==/PNPPanipat Junction (5)•X  04:51+2:0504:53+2:052m3389.176235mNRPanipat, Haryana
37.1/==/BBDEBabarpur (2)X  04:58-04:58-  395.8 76238mNRBaberpur Mandi, Haryana
37.2/==/KFUKohand (2)  05:02-05:02-  3100.8 76238mNRKarnal, Haryana
37.3/==/GRAGharaunda (2)  05:06-05:06-  3106.0 76244mNRGharaunda, Haryana
37.4/==/BZJTBazida Jatan (2)  05:13-05:13-  3114.0 76246mNRMaduban, Haryana
38/==/KUNKarnal (3)X  05:20+2:1205:21+2:131m23123.564253mNRKarnal, Haryana
38.1/==/BZKBhaini Khurd (1)  05:27-05:27-  3130.2 64255mNRBhaini Khurd Village, Haryana
38.2/==/TRRTaraori (2)  05:32-05:32-  3135.6 64255mNRTaraori, Haryana
38.3/==/NLKRNilokheri (2)  05:36-05:36-  3139.5 64254mNRNilokheri, Haryana
38.4/==/AMINAmin (2)  05:44-05:44-  3148.1 64257mNRKarnal, Haryana
39/==/KKDEKurukshetra Junction (3)  05:52+2:0305:54+2:032m--3156.645260mNRKurukshetra, Haryana
39.1/==/DHKRDhoda Khedi (2)  06:01-06:01-  3161.7 45257mNRMDR 116, Haryana
39.2/==/DPPDhirpur (2)  06:09-06:09-  3167.6 45262mNRNH 1, Haryana
39.3/==/DHMZDhola Mazra (2)  06:16-06:16-  3173.1 45262mNRNH 1, Haryana
39.4/==/SHDMShahbad Markanda (2)X  06:24-06:24-  3178.8 45267mNRShahabad Markanda, Haryana
39.5/==/MOYMohri (2)  06:37-06:37-  3188.8 45270mNRMohri, Haryana
40/==/UMBAmbala Cantt. Junction (7)X  06:50+1:5507:00+1:5610m73198.770278mNRAmbala 133001, Haryana
40.1/==/UBCAmbala City (3)  07:06-07:06-  3206.2 70273mNRNH-1, Haryana
40.2/==/SMUSambhu (2)X  07:15-07:15-  3215.7 70270mNRNH-1, Punjab
41/==/RPJRajpura Junction (3)07:25 07:24+2:0107:27 07:26+2:012m13226.768272mNRNH-1., Punjab
41.1/==/SBJSarai Banjara (2)X  07:34-07:34-  3235.8 68268mNRFatehgarh Sahib, Punjab
41.2/==/SDYSadhoo Garh (2)X  07:40-07:40-  3242.1 68268mNRFatehgarh Sahib, Punjab
42/==/SIRSirhind Junction (3)  07:43 07:48+1:5807:45 07:50+1:592m13251.683271mNRSirhind, Punjab
42.1/==/GVGMandi Gobindgarh (2)X  07:57-07:57-  3261.3 83268mNRMandi Gobindgarh, Punjab
43/==/KNNKhanna (3)  07:59 08:03+2:0308:00 08:05+2:031 2m13269.543269mNRNH 1, Punjab
43.1/==/CHAChawapail (2)X  08:20-08:20-  3280.4 43267mNRLudhiana, Punjab
43.2/==/JSPNJaspalonX  08:28-08:28-  3285.7 43261mNRJaspalo, Punjab
43.3/==/DOADoraha (2)X  08:34-08:34-  3289.8 43261mNRDoraha, Punjab
43.4/==/SNLSanehwal (3)  08:44-08:44-  3297.1 43260mNRLudhiana, Punjab
43.5/==/DDLDhandari Kalan (3)XO  08:55-08:55-  3304.8 43254mNRDhandari Kalan, Punjab
43.6/==/BHOIDhandari Kalan Block Hut (2)  09:01-09:01-  3309.1 43251mNRLudhiana, Punjab
44/==/LDHLudhiana Junction (7)X  08:45 09:05+1:5408:55 09:15+2:1210m23312.334246mNRLudhiana 141001, Punjab
44.1/==/LDWLadhowal (2)X  09:31-09:31-  3321.1 34243mNRLadhowal, Punjab
45/==/PHRPhillaur Junction (3)X  09:19 09:38+2:0809:20 09:40+2:101 2m23325.475246mNRPhillaur, Punjab
45.1/==/BTTNBhatian (2)  09:45-09:45-  3331.5 75244mNRBhattian, Punjab
45.2/==/GRYGoraya (2)  09:50-09:50-  3338.1 75240mNRGoraya, Punjab
45.3/==/MAULMauli (2)X  09:55-09:55-  3343.7 75240mNRAsian Highway 2, Punjab
45.4/==/MLIHMauli Halt (2)  09:55-09:55-  3343.8 75242mNRphagwara, Punjab
46/==/PGWPhagwara Junction (3)  09:39 09:58+2:1009:40 10:00+2:121 2m23347.985245mNRPhagwara, Punjab
46.1/==/CEUChiheru (2)X  10:06-10:06-  3355.7 85238mNRDistt Kapurthala 144411, Punjab
46.2/==/JRCJalandhar Cantt. Junction (3)  10:12-10:12-  3364.2 85239mNRNear Rama Mandi, Punjab
47/==/JUCJalandhar City Junction (5)X  09:55 10:15+2:2710:05 10:25+2:2510m13369.150239mNRJalandhar 144001, Punjab
47.1/==/BBSLBaba Sodhal Nagar  10:29-10:29-  3372.4 50239mNRJalandhar, Punjab
47.2/==/SRXSura Nussi (2)X  10:34-10:34-  3376.3 50236mNRSura Nussi, Punjab
47.3/==/KREKartarpur (2)  10:42-10:42-  3383.7 50236mNRKartarpur, Punjab
47.4/==/HMRHamira (2)  10:50-10:50-  3390.1 50202mNRKapurthala, Punjab
47.5/==/RYMRamidi Halt  10:53-10:53-  3392.4 50224mNRGrand Trunk Road, Punjab
47.6/==/DIWDhilwan (2)  11:01-11:01-  3399.4 50225mNRDhilwan, Punjab
48/==/BEASBeas Junction (2)  10:53 11:08+2:1210:54 11:10+2:131 2m13405.227238mNRBeas, Punjab
48.1/==/BBKRBaba Bakala Raiya (2)X  11:22-11:22-  3410.7 27235mNRBeas, Punjab
48.2/==/BTRButari (2)  11:35-11:35-  3416.3 27235mNRDistt Amritsar, Punjab
48.3/==/TRATangra (2)  11:48-11:48-  3422.5 27235mNRAmritsar, Punjab
48.4/==/JNLJandiala (2)X  12:03-12:03-  3429.0 27238mNRJandiala, Punjab
48.5/==/MOWMananwala (2)X  12:15-12:15-  3434.8 27233mNRAmritsar, Punjab
49/==/ASRAmritsar Junction (5)  12:30 12:45+1:22-33448.2-233mNRAmritsar 143002, Punjab
Scroll to Top
Scroll to Bottom